createdAt,value
2017-12-10T00:14:54.129Z,2.43
2017-12-10T00:17:21.522Z,3.20
2017-12-10T00:19:48.912Z,2.05
2017-12-10T00:22:16.296Z,2.70
2017-12-10T00:24:43.699Z,2.50
2017-12-10T00:27:11.132Z,2.25
2017-12-10T00:29:38.514Z,2.80
2017-12-10T00:32:05.874Z,2.75
2017-12-10T00:34:33.233Z,2.30
2017-12-10T00:37:00.635Z,2.65
2017-12-10T00:39:27.995Z,2.65
2017-12-10T00:41:55.399Z,2.35
2017-12-10T00:44:22.755Z,2.80
2017-12-10T00:46:50.162Z,2.20
2017-12-10T00:49:17.564Z,2.55
2017-12-10T00:51:44.902Z,2.97
2017-12-10T00:54:12.254Z,2.15
2017-12-10T00:56:39.642Z,2.40
2017-12-10T00:59:06.983Z,1.80
2017-12-10T01:01:34.332Z,1.90
2017-12-10T01:04:01.714Z,2.77
2017-12-10T01:06:29.123Z,2.25
2017-12-10T01:08:56.507Z,2.00
2017-12-10T01:11:23.907Z,1.90
2017-12-10T01:13:51.254Z,2.10
2017-12-10T01:16:18.654Z,2.50
2017-12-10T01:18:46.030Z,2.13
2017-12-10T01:21:13.377Z,1.53
2017-12-10T01:23:40.749Z,1.90
2017-12-10T01:26:08.123Z,1.95
2017-12-10T01:28:35.532Z,1.60
2017-12-10T01:31:02.882Z,1.80
2017-12-10T01:33:30.242Z,1.70
2017-12-10T01:35:57.633Z,1.80
2017-12-10T01:38:24.975Z,1.65
2017-12-10T01:40:52.382Z,1.17
2017-12-10T01:43:19.754Z,1.70
2017-12-10T01:45:47.133Z,1.90
2017-12-10T01:48:14.562Z,1.45
2017-12-10T01:50:41.935Z,1.95
2017-12-10T01:53:09.328Z,1.95
2017-12-10T01:55:36.718Z,1.40
2017-12-10T01:58:04.054Z,1.37
2017-12-10T02:00:31.385Z,1.75
2017-12-10T02:02:58.780Z,1.80
2017-12-10T02:05:26.118Z,1.57
2017-12-10T02:07:53.474Z,1.10
2017-12-10T02:10:20.856Z,1.35
2017-12-10T02:12:48.293Z,2.05
2017-12-10T02:15:15.642Z,1.50
2017-12-10T02:17:43.027Z,1.40
2017-12-10T02:20:10.466Z,1.20
2017-12-10T02:22:37.806Z,1.55
2017-12-10T02:25:05.171Z,1.60
2017-12-10T02:27:32.566Z,1.45
2017-12-10T02:29:59.927Z,1.25
2017-12-10T02:32:27.333Z,1.40
2017-12-10T02:34:54.763Z,1.40
2017-12-10T02:37:22.158Z,1.00
2017-12-10T02:39:49.500Z,1.15
2017-12-10T02:42:16.898Z,1.25
2017-12-10T02:44:44.289Z,1.20
2017-12-10T02:47:11.667Z,1.53
2017-12-10T02:49:39.018Z,1.10
2017-12-10T02:52:06.397Z,1.20
2017-12-10T02:54:33.729Z,1.00
2017-12-10T02:57:01.109Z,1.75
2017-12-10T02:59:28.462Z,1.90
2017-12-10T03:01:55.846Z,0.90
2017-12-10T03:04:23.236Z,1.50
2017-12-10T03:06:50.612Z,1.30
2017-12-10T03:09:17.999Z,0.83
2017-12-10T03:11:45.336Z,1.20
2017-12-10T03:14:12.676Z,1.85
2017-12-10T03:16:40.076Z,0.90
2017-12-10T03:19:07.438Z,1.50
2017-12-10T03:21:34.819Z,1.65
2017-12-10T03:24:02.157Z,1.25
2017-12-10T03:26:29.551Z,1.10
2017-12-10T03:28:56.943Z,0.90
2017-12-10T03:31:24.287Z,0.90
2017-12-10T03:33:51.664Z,1.55
2017-12-10T03:36:19.003Z,1.05
2017-12-10T03:38:46.419Z,1.40
2017-12-10T03:41:13.762Z,1.30
2017-12-10T03:43:41.095Z,1.15
2017-12-10T03:46:08.492Z,0.75
2017-12-10T03:48:35.832Z,1.20
2017-12-10T03:51:03.255Z,1.00
2017-12-10T03:53:30.603Z,0.80
2017-12-10T03:55:57.952Z,0.95
2017-12-10T03:58:25.350Z,0.80
2017-12-10T04:00:52.690Z,1.15
2017-12-10T04:03:20.063Z,0.90
2017-12-10T04:05:47.456Z,0.90
2017-12-10T04:08:14.836Z,0.73
2017-12-10T04:10:42.173Z,1.00
2017-12-10T04:13:09.529Z,1.25
2017-12-10T04:15:36.924Z,1.10
2017-12-10T04:18:04.289Z,0.90
2017-12-10T04:20:31.633Z,1.10
2017-12-10T04:22:59.034Z,0.85
2017-12-10T04:25:26.379Z,0.95
2017-12-10T04:27:53.750Z,0.80
2017-12-10T04:30:21.113Z,0.80
2017-12-10T04:32:48.491Z,0.80
2017-12-10T04:35:15.852Z,0.65
2017-12-10T04:37:43.239Z,0.90
2017-12-10T04:40:10.600Z,0.85
2017-12-10T04:42:37.993Z,0.70
2017-12-10T04:45:05.345Z,0.70
2017-12-10T04:47:32.686Z,0.90
2017-12-10T04:50:00.069Z,0.70
2017-12-10T04:52:27.435Z,0.90
2017-12-10T04:54:54.854Z,0.90
2017-12-10T04:57:22.210Z,0.85
2017-12-10T04:59:49.602Z,0.60
2017-12-10T05:02:16.966Z,1.00
2017-12-10T05:04:44.373Z,1.00
2017-12-10T05:07:11.712Z,0.85
2017-12-10T05:09:39.107Z,1.20
2017-12-10T05:12:06.483Z,0.80
2017-12-10T05:14:33.845Z,1.10
2017-12-10T05:17:01.225Z,0.90
2017-12-10T05:19:28.587Z,0.70
2017-12-10T05:21:55.984Z,0.80
2017-12-10T05:24:23.323Z,0.85
2017-12-10T05:26:50.715Z,0.67
2017-12-10T05:29:18.050Z,0.80
2017-12-10T05:31:45.458Z,0.80
2017-12-10T05:34:12.832Z,0.65
2017-12-10T05:36:40.218Z,0.80
2017-12-10T05:39:07.600Z,0.70
2017-12-10T05:41:34.939Z,0.70
2017-12-10T05:44:02.333Z,0.70
2017-12-10T05:46:29.664Z,0.90
2017-12-10T05:48:57.008Z,0.80
2017-12-10T05:51:24.389Z,0.50
2017-12-10T05:53:51.801Z,0.65
2017-12-10T05:56:19.156Z,0.65
2017-12-10T05:58:46.540Z,0.60
2017-12-10T06:01:13.891Z,0.60
2017-12-10T06:03:41.227Z,0.60
2017-12-10T06:06:08.653Z,0.70
2017-12-10T06:08:35.990Z,0.75
2017-12-10T06:11:03.407Z,0.60
2017-12-10T06:13:30.739Z,0.60
2017-12-10T06:15:58.073Z,0.60
2017-12-10T06:18:25.446Z,0.60
2017-12-10T06:20:52.826Z,0.60
2017-12-10T06:23:20.179Z,0.70
2017-12-10T06:25:47.562Z,0.55
2017-12-10T06:28:14.926Z,0.60
2017-12-10T06:30:42.318Z,0.80
2017-12-10T06:33:09.668Z,0.80
2017-12-10T06:35:37.078Z,0.80
2017-12-10T06:40:37.724Z,0.87
2017-12-10T06:43:05.123Z,0.60
2017-12-10T06:45:32.486Z,0.67
2017-12-10T06:47:59.830Z,0.75
2017-12-10T06:50:27.226Z,0.60
2017-12-10T06:52:55.527Z,0.65
2017-12-10T06:55:22.869Z,0.55
2017-12-10T06:57:50.266Z,0.65
2017-12-10T07:00:17.607Z,0.60
2017-12-10T07:02:45.035Z,0.70
2017-12-10T07:05:12.431Z,0.70
2017-12-10T07:07:39.820Z,0.60
2017-12-10T07:10:07.209Z,0.75
2017-12-10T07:12:34.554Z,0.55
2017-12-10T07:15:01.946Z,0.60
2017-12-10T07:17:29.382Z,0.57
2017-12-10T07:19:56.750Z,0.63
2017-12-10T07:22:24.078Z,0.90
2017-12-10T07:24:51.459Z,0.55
2017-12-10T07:27:18.844Z,0.85
2017-12-10T07:29:46.183Z,0.50
2017-12-10T07:32:13.532Z,0.70
2017-12-10T07:34:40.927Z,0.70
2017-12-10T07:37:08.315Z,0.85
2017-12-10T07:39:35.666Z,0.80
2017-12-10T07:42:03.084Z,0.80
2017-12-10T07:44:30.466Z,0.70
2017-12-10T07:46:57.807Z,0.70
2017-12-10T07:49:25.202Z,0.60
2017-12-10T07:51:52.542Z,0.50
2017-12-10T07:54:19.929Z,0.77
2017-12-10T07:56:47.286Z,0.50
2017-12-10T07:59:14.682Z,0.50
2017-12-10T08:01:42.026Z,0.80
2017-12-10T08:04:09.366Z,0.80
2017-12-10T08:06:36.774Z,0.70
2017-12-10T08:09:04.122Z,0.80
2017-12-10T08:11:31.514Z,0.60
2017-12-10T08:13:58.889Z,0.80
2017-12-10T08:16:26.304Z,0.60
2017-12-10T08:18:53.701Z,0.65
2017-12-10T08:21:21.084Z,0.60
2017-12-10T08:23:48.468Z,0.50
2017-12-10T08:26:15.824Z,0.67
2017-12-10T08:28:43.214Z,0.60
2017-12-10T08:31:10.556Z,0.80
2017-12-10T08:33:37.954Z,0.73
2017-12-10T08:36:05.344Z,0.80
2017-12-10T08:38:32.712Z,0.63
2017-12-10T08:41:00.115Z,0.90
2017-12-10T08:43:27.460Z,0.50
2017-12-10T08:45:54.798Z,0.80
2017-12-10T08:48:22.174Z,0.63
2017-12-10T08:50:49.513Z,0.60
2017-12-10T08:53:16.883Z,0.80
2017-12-10T08:55:44.217Z,0.70
2017-12-10T08:58:11.610Z,0.70
2017-12-10T09:00:38.957Z,0.90
2017-12-10T09:03:06.299Z,0.55
2017-12-10T09:05:33.681Z,0.60
2017-12-10T09:08:01.073Z,0.65
2017-12-10T09:10:28.411Z,0.80
2017-12-10T09:12:55.817Z,0.55
2017-12-10T09:15:23.160Z,0.65
2017-12-10T09:17:50.563Z,0.70
2017-12-10T09:20:17.906Z,0.80
2017-12-10T09:22:45.261Z,0.60
2017-12-10T09:25:12.690Z,0.70
2017-12-10T09:27:40.039Z,0.70
2017-12-10T09:30:07.380Z,0.80
2017-12-10T09:32:34.752Z,0.60
2017-12-10T09:35:02.089Z,0.70
2017-12-10T09:37:29.471Z,0.65
2017-12-10T09:39:56.810Z,0.60
2017-12-10T09:42:24.226Z,0.70
2017-12-10T09:44:51.566Z,0.90
2017-12-10T09:47:18.951Z,0.70
2017-12-10T09:49:46.300Z,0.70
2017-12-10T09:52:13.714Z,0.70
2017-12-10T09:54:41.095Z,0.60
2017-12-10T09:57:08.484Z,0.70
2017-12-10T09:59:35.868Z,0.90
2017-12-10T10:02:03.248Z,0.70
2017-12-10T10:04:30.629Z,0.80
2017-12-10T10:06:57.977Z,0.60
2017-12-10T10:09:25.374Z,0.90
2017-12-10T10:11:52.714Z,0.80
2017-12-10T10:14:20.067Z,0.63
2017-12-10T10:16:47.442Z,1.10
2017-12-10T10:19:14.798Z,0.90
2017-12-10T10:21:42.179Z,0.95
2017-12-10T10:24:09.612Z,0.90
2017-12-10T10:26:36.947Z,1.20
2017-12-10T10:29:04.352Z,0.90
2017-12-10T10:31:31.731Z,0.65
2017-12-10T10:33:59.152Z,0.87
2017-12-10T10:36:26.540Z,0.85
2017-12-10T10:38:53.920Z,0.90
2017-12-10T10:41:21.276Z,0.70
2017-12-10T10:43:48.721Z,0.50
2017-12-10T10:46:16.072Z,0.60
2017-12-10T10:48:43.444Z,1.00
2017-12-10T10:51:10.895Z,0.80
2017-12-10T10:53:38.270Z,0.60
2017-12-10T10:56:05.726Z,0.55
2017-12-10T10:58:33.074Z,0.95
2017-12-10T11:01:00.476Z,0.77
2017-12-10T11:03:27.860Z,1.00
2017-12-10T11:05:55.321Z,0.70
2017-12-10T11:08:22.668Z,0.70
2017-12-10T11:10:50.068Z,0.67
2017-12-10T11:13:17.410Z,0.80
2017-12-10T11:15:44.809Z,0.60
2017-12-10T11:18:12.202Z,0.63
2017-12-10T11:20:39.560Z,0.60
2017-12-10T11:23:06.904Z,0.60
2017-12-10T11:25:34.343Z,0.70
2017-12-10T11:28:01.744Z,0.70
2017-12-10T11:30:29.154Z,0.90
2017-12-10T11:32:56.623Z,0.90
2017-12-10T11:35:24.306Z,0.75
2017-12-10T11:37:51.739Z,0.95
2017-12-10T11:40:19.155Z,0.60
2017-12-10T11:42:46.562Z,0.90
2017-12-10T11:45:13.911Z,0.60
2017-12-10T11:47:41.253Z,0.80
2017-12-10T11:50:08.706Z,0.87
2017-12-10T11:52:36.119Z,0.85
2017-12-10T11:55:03.496Z,1.25
2017-12-10T11:57:30.866Z,1.10
2017-12-10T11:59:58.244Z,0.70
2017-12-10T12:02:25.625Z,0.60
2017-12-10T12:04:53.042Z,0.87
2017-12-10T12:07:41.059Z,0.90
2017-12-10T12:10:08.476Z,0.80
2017-12-10T12:12:35.809Z,0.90
2017-12-10T12:15:03.222Z,0.70
2017-12-10T12:17:30.599Z,0.55
2017-12-10T12:19:57.939Z,0.87
2017-12-10T12:22:25.347Z,0.60
2017-12-10T12:24:52.727Z,0.60
2017-12-10T12:27:20.137Z,0.80
2017-12-10T12:29:47.502Z,0.80
2017-12-10T12:32:15.048Z,0.80
2017-12-10T12:34:42.426Z,0.85
2017-12-10T12:37:09.799Z,0.67
2017-12-10T12:39:37.191Z,0.70
2017-12-10T12:42:04.552Z,0.60
2017-12-10T12:44:31.959Z,0.90
2017-12-10T12:46:59.295Z,1.60
2017-12-10T12:49:26.634Z,0.60
2017-12-10T12:51:54.046Z,1.10
2017-12-10T12:54:21.387Z,0.83
2017-12-10T12:56:48.727Z,1.00
2017-12-10T12:59:16.127Z,0.87
2017-12-10T13:01:43.516Z,1.00
2017-12-10T13:04:10.935Z,0.85
2017-12-10T13:06:38.279Z,1.20
2017-12-10T13:09:05.627Z,1.05
2017-12-10T13:11:33.026Z,0.97
2017-12-10T13:14:00.422Z,0.70
2017-12-10T13:16:27.822Z,1.27
2017-12-10T13:18:55.162Z,1.13
2017-12-10T13:21:22.514Z,1.00
2017-12-10T13:23:49.910Z,0.95
2017-12-10T13:26:17.243Z,0.80
2017-12-10T13:28:44.635Z,1.00
2017-12-10T13:31:12.004Z,1.20
2017-12-10T13:33:39.400Z,1.20
2017-12-10T13:36:06.761Z,1.50
2017-12-10T13:38:34.141Z,1.00
2017-12-10T13:41:01.534Z,1.20
2017-12-10T13:43:28.865Z,1.05
2017-12-10T13:45:56.239Z,1.40
2017-12-10T13:48:23.640Z,1.40
2017-12-10T13:50:51.043Z,1.40
2017-12-10T13:53:18.386Z,1.45
2017-12-10T13:55:45.760Z,1.30
2017-12-10T13:58:13.151Z,1.75
2017-12-10T14:00:40.506Z,2.00
2017-12-10T14:03:07.845Z,1.97
2017-12-10T14:05:35.262Z,1.55
2017-12-10T14:08:02.637Z,1.80
2017-12-10T14:10:30.007Z,1.15
2017-12-10T14:12:57.409Z,1.60
2017-12-10T14:15:24.763Z,2.00
2017-12-10T14:17:52.166Z,2.65
2017-12-10T14:20:19.562Z,2.20
2017-12-10T14:22:46.969Z,1.77
2017-12-10T14:25:14.351Z,2.35
2017-12-10T14:27:41.711Z,1.73
2017-12-10T14:30:09.106Z,2.00
2017-12-10T14:32:36.525Z,2.20
2017-12-10T14:35:03.881Z,2.50
2017-12-10T14:37:31.254Z,2.60
2017-12-10T14:39:58.636Z,1.95
2017-12-10T14:42:26.020Z,2.30
2017-12-10T14:44:53.452Z,2.67
2017-12-10T14:47:20.799Z,3.93
2017-12-10T14:49:48.179Z,2.75
2017-12-10T14:52:15.559Z,2.23
2017-12-10T14:54:42.935Z,2.45
2017-12-10T14:57:10.374Z,3.05
2017-12-10T14:59:37.703Z,2.65
2017-12-10T15:02:05.060Z,4.25
2017-12-10T15:04:32.458Z,3.50
2017-12-10T15:06:59.853Z,3.35
2017-12-10T15:09:27.245Z,3.25
2017-12-10T15:11:54.587Z,3.00
2017-12-10T15:14:22.011Z,3.90
2017-12-10T15:16:49.354Z,3.80
2017-12-10T15:19:16.759Z,3.25
2017-12-10T15:21:44.114Z,4.17
2017-12-10T15:24:11.513Z,4.45
2017-12-10T15:26:38.878Z,5.30
2017-12-10T15:29:06.276Z,4.33
2017-12-10T15:31:33.647Z,4.70
2017-12-10T15:34:01.024Z,5.80
2017-12-10T15:36:28.404Z,4.95
2017-12-10T15:38:55.786Z,5.00
2017-12-10T15:41:23.180Z,5.73
2017-12-10T15:43:50.570Z,5.00
2017-12-10T15:46:18.010Z,6.35
2017-12-10T15:48:45.419Z,6.17
2017-12-10T15:51:12.806Z,5.70
2017-12-10T15:53:40.175Z,6.00
2017-12-10T15:56:07.567Z,6.30
2017-12-10T15:58:34.959Z,7.20
2017-12-10T16:01:02.379Z,7.05
2017-12-10T16:03:29.732Z,7.75
2017-12-10T16:05:57.166Z,6.75
2017-12-10T16:08:24.576Z,7.10
2017-12-10T16:10:51.945Z,8.20
2017-12-10T16:13:19.307Z,7.60
2017-12-10T16:15:46.735Z,7.70
2017-12-10T16:18:14.102Z,6.90
2017-12-10T16:20:41.504Z,7.45
2017-12-10T16:23:08.863Z,8.10
2017-12-10T16:25:36.214Z,8.05
2017-12-10T16:28:03.609Z,6.90
2017-12-10T16:30:31.011Z,8.30
2017-12-10T16:32:58.380Z,7.35
2017-12-10T16:35:25.803Z,8.07
2017-12-10T16:37:53.160Z,7.70
2017-12-10T16:40:20.499Z,8.05
2017-12-10T16:42:47.894Z,8.35
2017-12-10T16:45:15.288Z,7.30
2017-12-10T16:47:42.638Z,7.70
2017-12-10T16:50:10.030Z,7.90
2017-12-10T16:52:37.382Z,8.40
2017-12-10T16:55:04.765Z,7.70
2017-12-10T16:57:32.210Z,9.15
2017-12-10T16:59:59.618Z,9.23
2017-12-10T17:02:26.990Z,9.15
2017-12-10T17:04:54.391Z,8.65
2017-12-10T17:07:21.759Z,9.40
2017-12-10T17:09:49.175Z,9.20
2017-12-10T17:12:16.554Z,8.90
2017-12-10T17:14:43.945Z,9.93
2017-12-10T17:17:11.367Z,9.45
2017-12-10T17:19:38.771Z,9.90
2017-12-10T17:22:06.198Z,10.40
2017-12-10T17:24:33.570Z,10.13
2017-12-10T17:27:00.980Z,10.40
2017-12-10T17:29:28.408Z,9.75
2017-12-10T17:31:55.774Z,11.15
2017-12-10T17:34:23.178Z,10.60
2017-12-10T17:36:50.530Z,11.45
2017-12-10T17:39:17.932Z,10.20
2017-12-10T17:41:45.302Z,11.35
2017-12-10T17:44:12.717Z,10.75
2017-12-10T17:46:40.087Z,10.67
2017-12-10T17:49:07.498Z,10.60
2017-12-10T17:51:34.898Z,11.25
2017-12-10T17:54:02.302Z,12.43
2017-12-10T17:56:29.722Z,12.73
2017-12-10T17:58:57.087Z,12.95
2017-12-10T18:01:24.498Z,12.65
2017-12-10T18:03:51.883Z,13.25
2017-12-10T18:06:19.275Z,13.10
2017-12-10T18:08:46.646Z,12.37
2017-12-10T18:11:14.066Z,11.85
2017-12-10T18:13:41.444Z,13.20
2017-12-10T18:16:08.816Z,14.07
2017-12-10T18:18:36.214Z,11.20
2017-12-10T18:21:03.581Z,12.60
2017-12-10T18:23:30.938Z,12.20
2017-12-10T18:25:58.356Z,13.23
2017-12-10T18:28:25.750Z,13.90
2017-12-10T18:30:53.203Z,12.53
2017-12-10T18:33:20.647Z,13.35
2017-12-10T18:35:48.010Z,15.13
2017-12-10T18:38:15.419Z,14.30
2017-12-10T18:40:42.789Z,15.47
2017-12-10T18:43:10.190Z,13.35
2017-12-10T18:45:37.568Z,14.93
2017-12-10T18:48:05.001Z,14.45
2017-12-10T18:50:32.402Z,14.70
2017-12-10T18:52:59.822Z,13.90
2017-12-10T18:55:27.253Z,14.15
2017-12-10T18:57:54.666Z,14.70
2017-12-10T19:00:22.055Z,15.80
2017-12-10T19:02:49.451Z,15.75
2017-12-10T19:05:16.866Z,16.00
2017-12-10T19:07:44.273Z,15.40
2017-12-10T19:10:11.639Z,15.90
2017-12-10T19:12:39.069Z,14.73
2017-12-10T19:15:06.439Z,16.83
2017-12-10T19:17:33.842Z,14.50
2017-12-10T19:20:01.209Z,14.50
2017-12-10T19:22:28.615Z,15.90
2017-12-10T19:24:56.030Z,16.05
2017-12-10T19:27:23.441Z,14.95
2017-12-10T19:29:50.799Z,15.90
2017-12-10T19:32:18.223Z,14.70
2017-12-10T19:34:45.593Z,16.80
2017-12-10T19:37:13.002Z,17.25
2017-12-10T19:39:40.368Z,17.75
2017-12-10T19:42:07.750Z,16.00
2017-12-10T19:44:35.155Z,16.00
2017-12-10T19:47:02.545Z,15.85
2017-12-10T19:49:29.946Z,16.70
2017-12-10T19:51:57.354Z,16.30
2017-12-10T19:54:24.718Z,17.80
2017-12-10T19:56:52.159Z,16.87
2017-12-10T19:59:19.544Z,15.97
2017-12-10T20:01:46.943Z,16.25
2017-12-10T20:04:14.370Z,16.15
2017-12-10T20:06:41.764Z,16.35
2017-12-10T20:09:09.204Z,17.17
2017-12-10T20:11:36.637Z,15.75
2017-12-10T20:14:04.018Z,17.13
2017-12-10T20:16:31.441Z,17.45
2017-12-10T20:18:58.820Z,16.00
2017-12-10T20:21:26.181Z,16.00
2017-12-10T20:23:53.643Z,15.45
2017-12-10T20:26:21.061Z,16.10
2017-12-10T20:28:48.507Z,16.10
2017-12-10T20:31:15.884Z,15.63
2017-12-10T20:33:43.352Z,17.05
2017-12-10T20:36:10.755Z,16.45
2017-12-10T20:38:38.133Z,16.53
2017-12-10T20:41:05.539Z,17.40
2017-12-10T20:43:32.954Z,17.25
2017-12-10T20:46:00.325Z,18.00
2017-12-10T20:48:27.686Z,16.80
2017-12-10T20:50:55.096Z,17.70
2017-12-10T20:53:22.467Z,18.77
2017-12-10T20:55:49.915Z,17.75
2017-12-10T20:58:17.287Z,17.47
2017-12-10T21:00:44.685Z,17.50
2017-12-10T21:03:12.061Z,18.30
2017-12-10T21:05:39.480Z,17.85
2017-12-10T21:08:06.884Z,17.30
2017-12-10T21:10:34.279Z,17.70
2017-12-10T21:13:01.699Z,17.55
2017-12-10T21:15:29.121Z,16.20
2017-12-10T21:17:56.530Z,17.00
2017-12-10T21:20:23.972Z,18.50
2017-12-10T21:22:51.387Z,16.65
2017-12-10T21:25:18.767Z,17.35
2017-12-10T21:27:46.174Z,17.20
2017-12-10T21:30:13.591Z,18.73
2017-12-10T21:32:40.975Z,16.97
2017-12-10T21:35:29.962Z,17.40
2017-12-10T21:37:57.418Z,16.50
2017-12-10T21:40:24.792Z,16.33
2017-12-10T21:42:52.159Z,17.80
2017-12-10T21:45:19.591Z,17.77
2017-12-10T21:47:46.956Z,17.50
2017-12-10T21:50:14.396Z,16.07
2017-12-10T21:52:41.807Z,17.97
2017-12-10T21:55:09.254Z,16.55
2017-12-10T21:57:36.638Z,17.45
2017-12-10T22:00:04.005Z,17.17
2017-12-10T22:02:31.432Z,17.13
2017-12-10T22:04:58.858Z,16.73
2017-12-10T22:07:26.287Z,16.40
2017-12-10T22:09:53.710Z,18.15
2017-12-10T22:12:21.201Z,17.30
2017-12-10T22:14:48.587Z,15.90
2017-12-10T22:17:16.035Z,16.65
2017-12-10T22:19:43.425Z,16.70
2017-12-10T22:22:10.817Z,16.75
2017-12-10T22:24:38.301Z,16.13
2017-12-10T22:27:05.700Z,15.80
2017-12-10T22:29:33.159Z,15.55
2017-12-10T22:32:00.545Z,14.60
2017-12-10T22:34:27.983Z,15.50
2017-12-10T22:36:55.410Z,16.50
2017-12-10T22:39:22.789Z,15.95
2017-12-10T22:41:50.293Z,17.80
2017-12-10T22:44:17.691Z,15.55
2017-12-10T22:49:18.374Z,14.60
2017-12-10T22:51:45.735Z,14.75
2017-12-10T22:54:13.164Z,14.20
2017-12-10T22:56:40.558Z,14.25
2017-12-10T22:59:07.938Z,15.03
2017-12-10T23:01:35.352Z,14.03
2017-12-10T23:04:03.219Z,14.00
2017-12-10T23:06:30.587Z,14.25
2017-12-10T23:08:57.975Z,15.25
2017-12-10T23:11:25.367Z,14.45
2017-12-10T23:13:52.743Z,14.45
2017-12-10T23:16:20.152Z,12.90
2017-12-10T23:18:47.554Z,15.25
2017-12-10T23:21:15.098Z,14.13
2017-12-10T23:23:42.546Z,14.30
2017-12-10T23:26:09.927Z,13.40
2017-12-10T23:28:37.340Z,13.90
2017-12-10T23:31:04.744Z,13.35
2017-12-10T23:33:32.092Z,13.17
2017-12-10T23:35:59.502Z,13.50
2017-12-10T23:38:26.980Z,14.05
2017-12-10T23:40:54.351Z,13.20
2017-12-10T23:43:21.731Z,14.00
2017-12-10T23:45:49.180Z,15.03
2017-12-10T23:48:16.550Z,12.75
2017-12-10T23:50:43.945Z,12.95
2017-12-10T23:53:11.312Z,12.83
2017-12-10T23:55:38.704Z,15.60
2017-12-10T23:58:06.086Z,13.57
